Main page
METAR-TAF:

METAR-TAF

Airports :

Kerrville Municipal Airport

Kerrville, Texas, United States

latitude: 29-58N, longitude: 099-05W, elevation: 1617 ft

Current weather observation

The report was made 29 minutes ago, at 04:15 UTC
Calm wind
Temperature 48°F
Humidity 66%
Pressure 29.78 in. Hg
Visibility: 10 miles
Clear sky

METAR: KERV 150415Z AUTO 00000KT 10SM CLR 09/03 A2978 RMK AO2 T00920032

Time: 22:44 (04:44 UTC)


TAF: missing

Weather observations and forecasts of more than 4000 airports (METAR and TAF reports).

The available stations are represented by yellow and red dots on the map.

Hover mouse over dot to see the name of the station.

Then click to see weather observations and forecasts.

To change the map : click on the green buttons with a black cross to zoom in, on the green button with a dash to zoom out, or on the green arrows for adjacent maps.


METAR-TAF: